Flood From: 18-02-2018 10:00 Until: 19-02-2018 06:00 warning for: Flood Level: Yellow info button

Although rather usual in this region, locally or potentially dangerous phenomena are expected. (such as local winds, summer thunderstorms, rising streams or high waves) Be aware and pay attention to the latest weather updates, especially if you carry out activities exposed to weather or close to a stream or shoreline. 


Meteo18 Weather Cam more information Meteo18 Weather Cam


Thunder radar more information blitzortung!


Rain radar more information rain snow radar


Visit our other weather sites:

Template documentation
and downloads

And another site



Weather Underground History page Text

Daily Summary for September 24, 2017 Units:  Both    English   Metric
« Previous Day
Next Day »
Daily Weekly Monthly Yearly Custom
  High: Low: Average:
Temperature: TemperatureC °F /  -17.8 °C 10.6 °F /  -11.9 °C 17 °F /  -8.3 °C
Dew Point: DewpointC °F /  -17.8 °C 9.5 °F /  -12.5 °C 12 °F /  -11.1 °C
Humidity: Humidity % 47 % 74 %
Wind Speed: WindSpeedKMH mph /  0 km/h - 0.8 mph /  1.3 km/h
Wind Gust: WindSpeedGustKMH mph /  0 km/h - -
Wind:- - SSE
Pressure: PressurehPa in /  0 hPa 1019.5 in /  34520.3 hPa -
Precipitation: 0.0 in /  0 mm    
Historical Graphs
 
 
Tabular Data for September 24, 2017
Time Temperature Dew Point Pressure Wind Wind Speed Wind Gust Humidity Rainfall Rate (Hourly)
TemperatureC °F /  -17.8 °C DewpointC °F /  -17.8 °C PressurehPa in /  0 hPa Calm     Humidity % HourlyPrecipMM in /  0 mm
00:02 14.3 °F /  -9.8 °C 11.5 °F /  -11.4 °C 1021.2 in /  34577.8 hPa Calm   4.8 mph /  7.7 km/h 83 % 0.0 in /  0 mm
00:12 14.3 °F /  -9.8 °C 11.6 °F /  -11.3 °C 1021.2 in /  34577.8 hPa NNW 3.2 mph /  5.1 km/h 4.8 mph /  7.7 km/h 84 % 0.0 in /  0 mm
00:17 14.3 °F /  -9.8 °C 11.5 °F /  -11.4 °C 1021.2 in /  34577.8 hPa Calm   4.8 mph /  7.7 km/h 83 % 0.0 in /  0 mm
00:22 14.1 °F /  -9.9 °C 11.4 °F /  -11.4 °C 1021.2 in /  34577.8 hPa Calm   6.4 mph /  10.3 km/h 84 % 0.0 in /  0 mm
00:32 13.9 °F /  -10.1 °C 11.4 °F /  -11.4 °C 1021.2 in /  34577.8 hPa Calm   4.8 mph /  7.7 km/h 85 % 0.0 in /  0 mm
00:37 13.9 °F /  -10.1 °C 11.4 °F /  -11.4 °C 1021.2 in /  34577.8 hPa Calm   4.8 mph /  7.7 km/h 85 % 0.0 in /  0 mm
00:42 13.9 °F /  -10.1 °C 11.4 °F /  -11.4 °C 1021.2 in /  34577.8 hPa Calm   4.8 mph /  7.7 km/h 85 % 0.0 in /  0 mm
00:47 13.7 °F /  -10.2 °C 11.2 °F /  -11.6 °C 1020.9 in /  34567.7 hPa Calm   3.2 mph /  5.1 km/h 85 % 0.0 in /  0 mm
00:52 13.5 °F /  -10.3 °C 11.0 °F /  -11.7 °C 1020.9 in /  34567.7 hPa Calm   3.2 mph /  5.1 km/h 85 % 0.0 in /  0 mm
00:57 13.4 °F /  -10.3 °C 11.1 °F /  -11.6 °C 1020.9 in /  34567.7 hPa Calm   1.6 mph /  2.6 km/h 86 % 0.0 in /  0 mm
01:02 13.3 °F /  -10.4 °C 11.0 °F /  -11.7 °C 1020.9 in /  34567.7 hPa Calm   1.6 mph /  2.6 km/h 86 % 0.0 in /  0 mm
01:07 13.3 °F /  -10.4 °C 11.0 °F /  -11.7 °C 1020.9 in /  34567.7 hPa Calm   1.6 mph /  2.6 km/h 86 % 0.0 in /  0 mm
01:12 13.2 °F /  -10.4 °C 10.9 °F /  -11.7 °C 1020.9 in /  34567.7 hPa Calm   1.6 mph /  2.6 km/h 86 % 0.0 in /  0 mm
01:17 13.1 °F /  -10.5 °C 11.0 °F /  -11.7 °C 1020.9 in /  34567.7 hPa Calm   1.6 mph /  2.6 km/h 87 % 0.0 in /  0 mm
01:22 13.1 °F /  -10.5 °C 11.0 °F /  -11.7 °C 1020.9 in /  34567.7 hPa Calm   1.6 mph /  2.6 km/h 87 % 0.0 in /  0 mm
01:27 13.1 °F /  -10.5 °C 11.0 °F /  -11.7 °C 1020.9 in /  34567.7 hPa Calm   1.6 mph /  2.6 km/h 87 % 0.0 in /  0 mm
01:32 13.1 °F /  -10.5 °C 11.2 °F /  -11.6 °C 1020.9 in /  34567.7 hPa Calm   1.6 mph /  2.6 km/h 88 % 0.0 in /  0 mm
01:37 13.0 °F /  -10.6 °C 11.1 °F /  -11.6 °C 1020.5 in /  34554.1 hPa NNW 1.6 mph /  2.6 km/h 1.6 mph /  2.6 km/h 88 % 0.0 in /  0 mm
01:42 13.0 °F /  -10.6 °C 11.1 °F /  -11.6 °C 1020.5 in /  34554.1 hPa Calm   1.6 mph /  2.6 km/h 88 % 0.0 in /  0 mm
01:52 13.1 °F /  -10.5 °C 11.2 °F /  -11.6 °C 1020.9 in /  34567.7 hPa Calm   1.6 mph /  2.6 km/h 88 % 0.0 in /  0 mm
01:57 13.1 °F /  -10.5 °C 11.0 °F /  -11.7 °C 1020.9 in /  34567.7 hPa Calm   1.6 mph /  2.6 km/h 87 % 0.0 in /  0 mm
02:02 12.9 °F /  -10.6 °C 11.0 °F /  -11.7 °C 1020.9 in /  34567.7 hPa Calm   1.6 mph /  2.6 km/h 88 % 0.0 in /  0 mm
02:07 12.8 °F /  -10.7 °C 10.7 °F /  -11.8 °C 1020.9 in /  34567.7 hPa Calm   1.6 mph /  2.6 km/h 87 % 0.0 in /  0 mm
02:12 12.5 °F /  -10.8 °C 10.7 °F /  -11.8 °C 1020.9 in /  34567.7 hPa Calm   1.6 mph /  2.6 km/h 89 % 0.0 in /  0 mm
02:17 12.6 °F /  -10.8 °C 10.8 °F /  -11.8 °C 1020.9 in /  34567.7 hPa NNW 1.6 mph /  2.6 km/h 1.6 mph /  2.6 km/h 89 % 0.0 in /  0 mm
02:22 12.8 °F /  -10.7 °C 11.0 °F /  -11.7 °C 1020.9 in /  34567.7 hPa Calm   1.6 mph /  2.6 km/h 89 % 0.0 in /  0 mm
02:32 13.0 °F /  -10.6 °C 11.1 °F /  -11.6 °C 1020.9 in /  34567.7 hPa North 1.6 mph /  2.6 km/h 3.2 mph /  5.1 km/h 88 % 0.0 in /  0 mm
02:37 12.9 °F /  -10.6 °C 10.8 °F /  -11.8 °C 1021.2 in /  34577.8 hPa Calm   3.2 mph /  5.1 km/h 87 % 0.0 in /  0 mm
02:42 12.9 °F /  -10.6 °C 10.8 °F /  -11.8 °C 1021.2 in /  34577.8 hPa Calm   3.2 mph /  5.1 km/h 87 % 0.0 in /  0 mm
02:52 12.6 °F /  -10.8 °C 10.5 °F /  -11.9 °C 1020.9 in /  34567.7 hPa Calm   3.2 mph /  5.1 km/h 87 % 0.0 in /  0 mm
02:57 12.6 °F /  -10.8 °C 10.7 °F /  -11.8 °C 1021.2 in /  34577.8 hPa Calm   1.6 mph /  2.6 km/h 88 % 0.0 in /  0 mm
03:02 12.5 °F /  -10.8 °C 10.7 °F /  -11.8 °C 1020.9 in /  34567.7 hPa Calm   1.6 mph /  2.6 km/h 89 % 0.0 in /  0 mm
03:07 12.5 °F /  -10.8 °C 10.7 °F /  -11.8 °C 1020.9 in /  34567.7 hPa NNW 1.6 mph /  2.6 km/h 3.2 mph /  5.1 km/h 89 % 0.0 in /  0 mm
03:12 12.6 °F /  -10.8 °C 10.8 °F /  -11.8 °C 1020.9 in /  34567.7 hPa Calm   3.2 mph /  5.1 km/h 89 % 0.0 in /  0 mm
03:17 12.7 °F /  -10.7 °C 10.9 °F /  -11.7 °C 1020.9 in /  34567.7 hPa Calm   3.2 mph /  5.1 km/h 89 % 0.0 in /  0 mm
03:22 12.6 °F /  -10.8 °C 10.7 °F /  -11.8 °C 1020.9 in /  34567.7 hPa NNW 1.6 mph /  2.6 km/h 3.2 mph /  5.1 km/h 88 % 0.0 in /  0 mm
03:27 12.6 °F /  -10.8 °C 10.8 °F /  -11.8 °C 1020.9 in /  34567.7 hPa Calm   4.8 mph /  7.7 km/h 89 % 0.0 in /  0 mm
03:32 12.5 °F /  -10.8 °C 10.7 °F /  -11.8 °C 1020.9 in /  34567.7 hPa Calm   4.8 mph /  7.7 km/h 89 % 0.0 in /  0 mm
03:37 12.4 °F /  -10.9 °C 10.6 °F /  -11.9 °C 1020.9 in /  34567.7 hPa NNW 1.6 mph /  2.6 km/h 4.8 mph /  7.7 km/h 89 % 0.0 in /  0 mm
03:42 12.3 °F /  -10.9 °C 10.5 °F /  -11.9 °C 1020.5 in /  34554.1 hPa North 1.6 mph /  2.6 km/h 4.8 mph /  7.7 km/h 89 % 0.0 in /  0 mm
03:47 12.2 °F /  -11 °C 10.4 °F /  -12 °C 1020.5 in /  34554.1 hPa Calm   3.2 mph /  5.1 km/h 89 % 0.0 in /  0 mm
03:52 12.1 °F /  -11.1 °C 10.5 °F /  -11.9 °C 1020.5 in /  34554.1 hPa North 1.6 mph /  2.6 km/h 3.2 mph /  5.1 km/h 90 % 0.0 in /  0 mm
03:57 12.1 °F /  -11.1 °C 10.5 °F /  -11.9 °C 1020.5 in /  34554.1 hPa NNW 1.6 mph /  2.6 km/h 3.2 mph /  5.1 km/h 90 % 0.0 in /  0 mm
04:02 12.1 °F /  -11.1 °C 10.5 °F /  -11.9 °C 1020.5 in /  34554.1 hPa North 1.6 mph /  2.6 km/h 3.2 mph /  5.1 km/h 90 % 0.0 in /  0 mm
04:12 11.9 °F /  -11.2 °C 10.3 °F /  -12.1 °C 1020.5 in /  34554.1 hPa Calm   3.2 mph /  5.1 km/h 90 % 0.0 in /  0 mm
04:17 11.9 °F /  -11.2 °C 10.3 °F /  -12.1 °C 1020.5 in /  34554.1 hPa Calm   3.2 mph /  5.1 km/h 90 % 0.0 in /  0 mm
04:22 11.9 °F /  -11.2 °C 10.5 °F /  -11.9 °C 1020.5 in /  34554.1 hPa Calm   3.2 mph /  5.1 km/h 91 % 0.0 in /  0 mm
04:32 11.9 °F /  -11.2 °C 10.5 °F /  -11.9 °C 1020.5 in /  34554.1 hPa NNW 1.6 mph /  2.6 km/h   91 % 0.0 in /  0 mm
04:37 11.8 °F /  -11.2 °C 10.4 °F /  -12 °C 1020.5 in /  34554.1 hPa Calm   3.2 mph /  5.1 km/h 91 % 0.0 in /  0 mm
04:42 11.8 °F /  -11.2 °C 10.2 °F /  -12.1 °C 1020.5 in /  34554.1 hPa Calm   3.2 mph /  5.1 km/h 90 % 0.0 in /  0 mm
04:52 11.7 °F /  -11.3 °C 10.1 °F /  -12.2 °C 1020.5 in /  34554.1 hPa Calm   3.2 mph /  5.1 km/h 90 % 0.0 in /  0 mm
05:02 11.7 °F /  -11.3 °C 10.3 °F /  -12.1 °C 1020.2 in /  34544 hPa North 1.6 mph /  2.6 km/h 3.2 mph /  5.1 km/h 91 % 0.0 in /  0 mm
05:07 11.7 °F /  -11.3 °C 10.3 °F /  -12.1 °C 1020.2 in /  34544 hPa Calm   1.6 mph /  2.6 km/h 91 % 0.0 in /  0 mm
05:22 11.3 °F /  -11.5 °C 9.9 °F /  -12.3 °C 1020.2 in /  34544 hPa North 1.6 mph /  2.6 km/h 1.6 mph /  2.6 km/h 91 % 0.0 in /  0 mm
05:32 11.3 °F /  -11.5 °C 9.9 °F /  -12.3 °C 1020.2 in /  34544 hPa North 1.6 mph /  2.6 km/h 1.6 mph /  2.6 km/h 91 % 0.0 in /  0 mm
05:37 11.2 °F /  -11.6 °C 9.9 °F /  -12.3 °C 1020.2 in /  34544 hPa Calm   1.6 mph /  2.6 km/h 92 % 0.0 in /  0 mm
05:42 11.2 °F /  -11.6 °C 9.9 °F /  -12.3 °C 1020.2 in /  34544 hPa Calm   1.6 mph /  2.6 km/h 92 % 0.0 in /  0 mm
05:52 11.1 °F /  -11.6 °C 9.8 °F /  -12.3 °C 1020.2 in /  34544 hPa Calm   1.6 mph /  2.6 km/h 92 % 0.0 in /  0 mm
05:57 11.0 °F /  -11.7 °C 9.8 °F /  -12.3 °C 1020.2 in /  34544 hPa Calm     92 % 0.0 in /  0 mm
06:02 10.9 °F /  -11.7 °C 9.7 °F /  -12.4 °C 1020.2 in /  34544 hPa Calm     92 % 0.0 in /  0 mm
06:12 10.9 °F /  -11.7 °C 9.8 °F /  -12.3 °C 1020.5 in /  34554.1 hPa Calm     93 % 0.0 in /  0 mm
06:17 10.9 °F /  -11.7 °C 9.8 °F /  -12.3 °C 1020.5 in /  34554.1 hPa Calm     93 % 0.0 in /  0 mm
06:22 11.1 °F /  -11.6 °C 10.0 °F /  -12.2 °C 1020.5 in /  34554.1 hPa Calm     93 % 0.0 in /  0 mm
06:27 11.0 °F /  -11.7 °C 9.9 °F /  -12.3 °C 1020.5 in /  34554.1 hPa Calm     93 % 0.0 in /  0 mm
06:32 11.0 °F /  -11.7 °C 10.1 °F /  -12.2 °C 1020.5 in /  34554.1 hPa Calm     94 % 0.0 in /  0 mm
06:42 10.9 °F /  -11.7 °C 9.8 °F /  -12.3 °C 1020.5 in /  34554.1 hPa Calm     93 % 0.0 in /  0 mm
06:47 10.9 °F /  -11.7 °C 9.8 °F /  -12.3 °C 1020.5 in /  34554.1 hPa Calm     93 % 0.0 in /  0 mm
06:52 10.8 °F /  -11.8 °C 9.7 °F /  -12.4 °C 1020.5 in /  34554.1 hPa Calm     93 % 0.0 in /  0 mm
06:57 10.7 °F /  -11.8 °C 9.6 °F /  -12.4 °C 1020.5 in /  34554.1 hPa Calm     93 % 0.0 in /  0 mm
07:02 10.8 °F /  -11.8 °C 9.9 °F /  -12.3 °C 1020.5 in /  34554.1 hPa Calm     94 % 0.0 in /  0 mm
07:12 10.7 °F /  -11.8 °C 9.6 °F /  -12.4 °C 1020.5 in /  34554.1 hPa Calm     93 % 0.0 in /  0 mm
07:17 10.7 °F /  -11.8 °C 9.6 °F /  -12.4 °C 1020.5 in /  34554.1 hPa Calm     93 % 0.0 in /  0 mm
07:22 10.7 °F /  -11.8 °C 9.6 °F /  -12.4 °C 1020.5 in /  34554.1 hPa Calm     93 % 0.0 in /  0 mm
07:32 10.7 °F /  -11.8 °C 9.6 °F /  -12.4 °C 1020.5 in /  34554.1 hPa Calm     93 % 0.0 in /  0 mm
07:42 10.6 °F /  -11.9 °C 9.5 °F /  -12.5 °C 1020.5 in /  34554.1 hPa Calm     93 % 0.0 in /  0 mm
07:47 10.6 °F /  -11.9 °C 9.7 °F /  -12.4 °C 1020.5 in /  34554.1 hPa Calm     94 % 0.0 in /  0 mm
07:57 10.6 °F /  -11.9 °C 9.7 °F /  -12.4 °C 1020.5 in /  34554.1 hPa Calm     94 % 0.0 in /  0 mm
08:02 10.7 °F /  -11.8 °C 9.8 °F /  -12.3 °C 1020.5 in /  34554.1 hPa Calm     94 % 0.0 in /  0 mm
08:07 10.8 °F /  -11.8 °C 9.9 °F /  -12.3 °C 1020.9 in /  34567.7 hPa Calm     94 % 0.0 in /  0 mm
08:12 10.8 °F /  -11.8 °C 9.9 °F /  -12.3 °C 1020.9 in /  34567.7 hPa Calm     94 % 0.0 in /  0 mm
08:17 10.8 °F /  -11.8 °C 9.9 °F /  -12.3 °C 1020.5 in /  34554.1 hPa Calm     94 % 0.0 in /  0 mm
08:22 10.9 °F /  -11.7 °C 10.0 °F /  -12.2 °C 1020.5 in /  34554.1 hPa Calm     94 % 0.0 in /  0 mm
08:32 10.9 °F /  -11.7 °C 9.8 °F /  -12.3 °C 1020.9 in /  34567.7 hPa Calm     93 % 0.0 in /  0 mm
08:42 10.9 °F /  -11.7 °C 10.0 °F /  -12.2 °C 1020.9 in /  34567.7 hPa Calm     94 % 0.0 in /  0 mm
08:52 10.8 °F /  -11.8 °C 9.9 °F /  -12.3 °C 1020.9 in /  34567.7 hPa Calm     94 % 0.0 in /  0 mm
09:02 11.0 °F /  -11.7 °C 10.1 °F /  -12.2 °C 1020.9 in /  34567.7 hPa Calm     94 % 0.0 in /  0 mm
09:07 11.1 °F /  -11.6 °C 10.2 °F /  -12.1 °C 1020.9 in /  34567.7 hPa NNE 3.2 mph /  5.1 km/h   94 % 0.0 in /  0 mm
09:12 11.4 °F /  -11.4 °C 10.5 °F /  -11.9 °C 1020.9 in /  34567.7 hPa NNE 1.6 mph /  2.6 km/h   94 % 0.0 in /  0 mm
09:17 11.8 °F /  -11.2 °C 10.9 °F /  -11.7 °C 1020.9 in /  34567.7 hPa Calm   4.8 mph /  7.7 km/h 94 % 0.0 in /  0 mm
09:22 12.4 °F /  -10.9 °C 11.5 °F /  -11.4 °C 1020.9 in /  34567.7 hPa North 1.6 mph /  2.6 km/h 4.8 mph /  7.7 km/h 94 % 0.0 in /  0 mm
09:32 13.2 °F /  -10.4 °C 11.8 °F /  -11.2 °C 1021.2 in /  34577.8 hPa Calm   3.2 mph /  5.1 km/h 91 % 0.0 in /  0 mm
09:42 13.9 °F /  -10.1 °C 11.9 °F /  -11.2 °C 1021.2 in /  34577.8 hPa NE 1.6 mph /  2.6 km/h 3.2 mph /  5.1 km/h 88 % 0.0 in /  0 mm
09:47 13.9 °F /  -10.1 °C 11.8 °F /  -11.2 °C 1021.2 in /  34577.8 hPa Calm   3.2 mph /  5.1 km/h 87 % 0.0 in /  0 mm
09:52 14.2 °F /  -9.9 °C 12.1 °F /  -11.1 °C 1021.2 in /  34577.8 hPa Calm   3.2 mph /  5.1 km/h 87 % 0.0 in /  0 mm
10:02 14.9 °F /  -9.5 °C 12.0 °F /  -11.1 °C 1021.2 in /  34577.8 hPa Calm   3.2 mph /  5.1 km/h 83 % 0.0 in /  0 mm
10:07 15.2 °F /  -9.3 °C 12.0 °F /  -11.1 °C 1021.6 in /  34591.4 hPa Calm   1.6 mph /  2.6 km/h 81 % 0.0 in /  0 mm
10:17 16.1 °F /  -8.8 °C 12.5 °F /  -10.8 °C 1021.2 in /  34577.8 hPa Calm   3.2 mph /  5.1 km/h 79 % 0.0 in /  0 mm
10:22 16.4 °F /  -8.7 °C 12.4 °F /  -10.9 °C 1021.2 in /  34577.8 hPa Calm   3.2 mph /  5.1 km/h 77 % 0.0 in /  0 mm
10:32 16.7 °F /  -8.5 °C 12.4 °F /  -10.9 °C 1021.6 in /  34591.4 hPa Calm   3.2 mph /  5.1 km/h 76 % 0.0 in /  0 mm
10:37 16.9 °F /  -8.4 °C 12.6 °F /  -10.8 °C 1021.6 in /  34591.4 hPa Calm   6.4 mph /  10.3 km/h 76 % 0.0 in /  0 mm
10:42 17.1 °F /  -8.3 °C 12.8 °F /  -10.7 °C 1021.6 in /  34591.4 hPa Calm   6.4 mph /  10.3 km/h 76 % 0.0 in /  0 mm
10:47 17.4 °F /  -8.1 °C 12.9 °F /  -10.6 °C 1021.2 in /  34577.8 hPa Calm   6.4 mph /  10.3 km/h 75 % 0.0 in /  0 mm
10:52 17.4 °F /  -8.1 °C 12.7 °F /  -10.7 °C 1021.6 in /  34591.4 hPa Calm   6.4 mph /  10.3 km/h 74 % 0.0 in /  0 mm
11:02 17.7 °F /  -7.9 °C 13.0 °F /  -10.6 °C 1021.2 in /  34577.8 hPa Calm   3.2 mph /  5.1 km/h 74 % 0.0 in /  0 mm
11:12 18.2 °F /  -7.7 °C 13.1 °F /  -10.5 °C 1021.6 in /  34591.4 hPa Calm   3.2 mph /  5.1 km/h 72 % 0.0 in /  0 mm
11:17 18.3 °F /  -7.6 °C 13.4 °F /  -10.3 °C 1021.6 in /  34591.4 hPa Calm   4.8 mph /  7.7 km/h 73 % 0.0 in /  0 mm
11:22 18.5 °F /  -7.5 °C 13.6 °F /  -10.2 °C 1021.6 in /  34591.4 hPa SSE 1.6 mph /  2.6 km/h 4.8 mph /  7.7 km/h 73 % 0.0 in /  0 mm
11:32 18.8 °F /  -7.3 °C 13.9 °F /  -10.1 °C 1021.6 in /  34591.4 hPa SE 1.6 mph /  2.6 km/h 4.8 mph /  7.7 km/h 73 % 0.0 in /  0 mm
11:42 19.1 °F /  -7.2 °C 13.7 °F /  -10.2 °C 1021.2 in /  34577.8 hPa Calm   4.8 mph /  7.7 km/h 71 % 0.0 in /  0 mm
11:52 19.0 °F /  -7.2 °C 13.8 °F /  -10.1 °C 1021.2 in /  34577.8 hPa Calm   4.8 mph /  7.7 km/h 72 % 0.0 in /  0 mm
12:02 19.6 °F /  -6.9 °C 13.8 °F /  -10.1 °C 1020.9 in /  34567.7 hPa East 1.6 mph /  2.6 km/h 6.4 mph /  10.3 km/h 69 % 0.0 in /  0 mm
12:12 20.1 °F /  -6.6 °C 14.2 °F /  -9.9 °C 1020.9 in /  34567.7 hPa Calm   6.4 mph /  10.3 km/h 69 % 0.0 in /  0 mm
12:17 20.2 °F /  -6.6 °C 13.6 °F /  -10.2 °C 1020.9 in /  34567.7 hPa Calm   6.4 mph /  10.3 km/h 66 % 0.0 in /  0 mm
12:22 20.3 °F /  -6.5 °C 13.7 °F /  -10.2 °C 1020.9 in /  34567.7 hPa ENE 4.8 mph /  7.7 km/h 6.4 mph /  10.3 km/h 66 % 0.0 in /  0 mm
12:27 20.2 °F /  -6.6 °C 13.4 °F /  -10.3 °C 1020.9 in /  34567.7 hPa Calm   8.0 mph /  12.9 km/h 65 % 0.0 in /  0 mm
12:32 20.8 °F /  -6.2 °C 14.4 °F /  -9.8 °C 1020.9 in /  34567.7 hPa East 1.6 mph /  2.6 km/h 8.0 mph /  12.9 km/h 67 % 0.0 in /  0 mm
12:42 20.6 °F /  -6.3 °C 13.6 °F /  -10.2 °C 1020.9 in /  34567.7 hPa East 4.8 mph /  7.7 km/h 8.0 mph /  12.9 km/h 64 % 0.0 in /  0 mm
12:47 20.6 °F /  -6.3 °C 13.8 °F /  -10.1 °C 1020.9 in /  34567.7 hPa Calm   6.4 mph /  10.3 km/h 65 % 0.0 in /  0 mm
12:52 20.9 °F /  -6.2 °C 13.8 °F /  -10.1 °C 1020.9 in /  34567.7 hPa ENE 8.0 mph /  12.9 km/h 8.0 mph /  12.9 km/h 64 % 0.0 in /  0 mm
13:02 21.1 °F /  -6.1 °C 13.8 °F /  -10.1 °C 1020.9 in /  34567.7 hPa SW 1.6 mph /  2.6 km/h 8.0 mph /  12.9 km/h 63 % 0.0 in /  0 mm
13:12 21.2 °F /  -6 °C 13.6 °F /  -10.2 °C 1020.9 in /  34567.7 hPa ENE 6.4 mph /  10.3 km/h 8.0 mph /  12.9 km/h 62 % 0.0 in /  0 mm
13:17 21.3 °F /  -5.9 °C 14.0 °F /  -10 °C 1020.9 in /  34567.7 hPa East 4.8 mph /  7.7 km/h 8.0 mph /  12.9 km/h 63 % 0.0 in /  0 mm
13:22 21.2 °F /  -6 °C 13.9 °F /  -10.1 °C 1020.9 in /  34567.7 hPa NE 8.0 mph /  12.9 km/h 8.0 mph /  12.9 km/h 63 % 0.0 in /  0 mm
13:32 21.8 °F /  -5.7 °C 13.7 °F /  -10.2 °C 1020.9 in /  34567.7 hPa Calm   8.0 mph /  12.9 km/h 60 % 0.0 in /  0 mm
13:37 22.0 °F /  -5.6 °C 13.9 °F /  -10.1 °C 1020.9 in /  34567.7 hPa Calm   8.0 mph /  12.9 km/h 60 % 0.0 in /  0 mm
13:42 21.9 °F /  -5.6 °C 14.0 °F /  -10 °C 1020.9 in /  34567.7 hPa Calm   8.0 mph /  12.9 km/h 61 % 0.0 in /  0 mm
13:52 22.2 °F /  -5.4 °C 13.5 °F /  -10.3 °C 1020.5 in /  34554.1 hPa Calm   8.0 mph /  12.9 km/h 58 % 0.0 in /  0 mm
13:57 22.4 °F /  -5.3 °C 13.7 °F /  -10.2 °C 1020.5 in /  34554.1 hPa SSW 4.8 mph /  7.7 km/h 8.0 mph /  12.9 km/h 58 % 0.0 in /  0 mm
14:02 22.7 °F /  -5.2 °C 13.2 °F /  -10.4 °C 1020.5 in /  34554.1 hPa SE 3.2 mph /  5.1 km/h 8.0 mph /  12.9 km/h 55 % 0.0 in /  0 mm
14:12 22.8 °F /  -5.1 °C 11.8 °F /  -11.2 °C 1020.5 in /  34554.1 hPa East 3.2 mph /  5.1 km/h 8.0 mph /  12.9 km/h 50 % 0.0 in /  0 mm
14:17 22.7 °F /  -5.2 °C 12.0 °F /  -11.1 °C 1020.5 in /  34554.1 hPa Calm   8.0 mph /  12.9 km/h 51 % 0.0 in /  0 mm
14:22 23.2 °F /  -4.9 °C 13.4 °F /  -10.3 °C 1020.5 in /  34554.1 hPa SE 1.6 mph /  2.6 km/h 6.4 mph /  10.3 km/h 54 % 0.0 in /  0 mm
14:32 23.6 °F /  -4.7 °C 13.2 °F /  -10.4 °C 1020.5 in /  34554.1 hPa ENE 8.0 mph /  12.9 km/h 8.0 mph /  12.9 km/h 52 % 0.0 in /  0 mm
14:37 23.4 °F /  -4.8 °C 13.0 °F /  -10.6 °C 1020.2 in /  34544 hPa Calm   6.4 mph /  10.3 km/h 52 % 0.0 in /  0 mm
14:42 23.7 °F /  -4.6 °C 13.0 °F /  -10.6 °C 1020.2 in /  34544 hPa Calm   8.0 mph /  12.9 km/h 51 % 0.0 in /  0 mm
14:47 23.7 °F /  -4.6 °C 13.0 °F /  -10.6 °C 1020.2 in /  34544 hPa Calm   8.0 mph /  12.9 km/h 51 % 0.0 in /  0 mm
14:57 23.5 °F /  -4.7 °C 12.8 °F /  -10.7 °C 1020.2 in /  34544 hPa WNW 8.0 mph /  12.9 km/h 9.7 mph /  15.6 km/h 51 % 0.0 in /  0 mm
15:02 23.3 °F /  -4.8 °C 13.2 °F /  -10.4 °C 1020.2 in /  34544 hPa Calm   9.7 mph /  15.6 km/h 53 % 0.0 in /  0 mm
15:12 23.3 °F /  -4.8 °C 12.6 °F /  -10.8 °C 1020.2 in /  34544 hPa East 9.7 mph /  15.6 km/h 9.7 mph /  15.6 km/h 51 % 0.0 in /  0 mm
15:17 23.4 °F /  -4.8 °C 13.3 °F /  -10.4 °C 1020.2 in /  34544 hPa Calm   9.7 mph /  15.6 km/h 53 % 0.0 in /  0 mm
15:22 23.7 °F /  -4.6 °C 13.6 °F /  -10.2 °C 1020.2 in /  34544 hPa SE 3.2 mph /  5.1 km/h 9.7 mph /  15.6 km/h 53 % 0.0 in /  0 mm
15:27 23.8 °F /  -4.6 °C 12.8 °F /  -10.7 °C 1020.2 in /  34544 hPa ENE 4.8 mph /  7.7 km/h 9.7 mph /  15.6 km/h 50 % 0.0 in /  0 mm
15:32 23.5 °F /  -4.7 °C 12.5 °F /  -10.8 °C 1020.2 in /  34544 hPa Calm   9.7 mph /  15.6 km/h 50 % 0.0 in /  0 mm
15:42 23.9 °F /  -4.5 °C 13.1 °F /  -10.5 °C 1019.9 in /  34533.8 hPa Calm   8.0 mph /  12.9 km/h 51 % 0.0 in /  0 mm
15:52 23.7 °F /  -4.6 °C 12.7 °F /  -10.7 °C 1019.9 in /  34533.8 hPa SW 1.6 mph /  2.6 km/h 6.4 mph /  10.3 km/h 50 % 0.0 in /  0 mm
15:57 23.7 °F /  -4.6 °C 12.7 °F /  -10.7 °C 1019.9 in /  34533.8 hPa WSW 3.2 mph /  5.1 km/h 11.3 mph /  18.2 km/h 50 % 0.0 in /  0 mm
16:02 23.9 °F /  -4.5 °C 12.5 °F /  -10.8 °C 1019.9 in /  34533.8 hPa WNW 1.6 mph /  2.6 km/h 11.3 mph /  18.2 km/h 49 % 0.0 in /  0 mm
16:12 23.8 °F /  -4.6 °C 12.4 °F /  -10.9 °C 1019.9 in /  34533.8 hPa Calm   4.8 mph /  7.7 km/h 49 % 0.0 in /  0 mm
16:17 23.8 °F /  -4.6 °C 12.4 °F /  -10.9 °C 1019.9 in /  34533.8 hPa West 1.6 mph /  2.6 km/h 4.8 mph /  7.7 km/h 49 % 0.0 in /  0 mm
16:22 23.8 °F /  -4.6 °C 12.8 °F /  -10.7 °C 1019.9 in /  34533.8 hPa Calm   4.8 mph /  7.7 km/h 50 % 0.0 in /  0 mm
16:32 24.1 °F /  -4.4 °C 12.7 °F /  -10.7 °C 1019.5 in /  34520.3 hPa Calm   6.4 mph /  10.3 km/h 49 % 0.0 in /  0 mm
16:42 24.4 °F /  -4.2 °C 13.0 °F /  -10.6 °C 1019.5 in /  34520.3 hPa East 1.6 mph /  2.6 km/h 3.2 mph /  5.1 km/h 49 % 0.0 in /  0 mm
16:52 24.5 °F /  -4.2 °C 13.1 °F /  -10.5 °C 1019.9 in /  34533.8 hPa ENE 3.2 mph /  5.1 km/h 4.8 mph /  7.7 km/h 49 % 0.0 in /  0 mm
16:57 24.7 °F /  -4.1 °C 13.0 °F /  -10.6 °C 1019.9 in /  34533.8 hPa SW 1.6 mph /  2.6 km/h 6.4 mph /  10.3 km/h 48 % 0.0 in /  0 mm
17:02 24.6 °F /  -4.1 °C 12.5 °F /  -10.8 °C 1019.9 in /  34533.8 hPa SW 6.4 mph /  10.3 km/h 6.4 mph /  10.3 km/h 47 % 0.0 in /  0 mm
17:07 24.3 °F /  -4.3 °C 12.6 °F /  -10.8 °C 1019.5 in /  34520.3 hPa Calm   8.0 mph /  12.9 km/h 48 % 0.0 in /  0 mm
17:12 24.6 °F /  -4.1 °C 13.2 °F /  -10.4 °C 1019.5 in /  34520.3 hPa Calm   8.0 mph /  12.9 km/h 49 % 0.0 in /  0 mm
17:17 24.3 °F /  -4.3 °C 12.9 °F /  -10.6 °C 1019.5 in /  34520.3 hPa ENE 6.4 mph /  10.3 km/h 8.0 mph /  12.9 km/h 49 % 0.0 in /  0 mm
17:22 24.0 °F /  -4.4 °C 12.6 °F /  -10.8 °C 1019.5 in /  34520.3 hPa Calm   8.0 mph /  12.9 km/h 49 % 0.0 in /  0 mm
17:27 24.1 °F /  -4.4 °C 13.0 °F /  -10.6 °C 1019.5 in /  34520.3 hPa NE 3.2 mph /  5.1 km/h 8.0 mph /  12.9 km/h 50 % 0.0 in /  0 mm
17:32 24.1 °F /  -4.4 °C 13.0 °F /  -10.6 °C 1019.5 in /  34520.3 hPa Calm   8.0 mph /  12.9 km/h 50 % 0.0 in /  0 mm
17:37 24.1 °F /  -4.4 °C 12.7 °F /  -10.7 °C 1019.5 in /  34520.3 hPa Calm   6.4 mph /  10.3 km/h 49 % 0.0 in /  0 mm
17:42 24.1 °F /  -4.4 °C 12.7 °F /  -10.7 °C 1019.5 in /  34520.3 hPa Calm   6.4 mph /  10.3 km/h 49 % 0.0 in /  0 mm
17:47 24.1 °F /  -4.4 °C 12.7 °F /  -10.7 °C 1019.5 in /  34520.3 hPa East 1.6 mph /  2.6 km/h 6.4 mph /  10.3 km/h 49 % 0.0 in /  0 mm
17:52 23.8 °F /  -4.6 °C 12.8 °F /  -10.7 °C 1019.5 in /  34520.3 hPa Calm   6.4 mph /  10.3 km/h 50 % 0.0 in /  0 mm
18:02 23.8 °F /  -4.6 °C 12.8 °F /  -10.7 °C 1019.5 in /  34520.3 hPa Calm   1.6 mph /  2.6 km/h 50 % 0.0 in /  0 mm
18:12 23.8 °F /  -4.6 °C 13.1 °F /  -10.5 °C 1019.5 in /  34520.3 hPa Calm   1.6 mph /  2.6 km/h 51 % 0.0 in /  0 mm
18:17 23.6 °F /  -4.7 °C 12.9 °F /  -10.6 °C 1019.5 in /  34520.3 hPa Calm     51 % 0.0 in /  0 mm
18:22 23.4 °F /  -4.8 °C 12.4 °F /  -10.9 °C 1019.5 in /  34520.3 hPa East 1.6 mph /  2.6 km/h 1.6 mph /  2.6 km/h 50 % 0.0 in /  0 mm
18:27 23.2 °F /  -4.9 °C 12.8 °F /  -10.7 °C 1019.9 in /  34533.8 hPa Calm   1.6 mph /  2.6 km/h 52 % 0.0 in /  0 mm
18:32 23.1 °F /  -4.9 °C 13.0 °F /  -10.6 °C 1019.9 in /  34533.8 hPa Calm   4.8 mph /  7.7 km/h 53 % 0.0 in /  0 mm
18:37 22.9 °F /  -5.1 °C 12.8 °F /  -10.7 °C 1019.9 in /  34533.8 hPa Calm   4.8 mph /  7.7 km/h 53 % 0.0 in /  0 mm
18:42 22.8 °F /  -5.1 °C 13.0 °F /  -10.6 °C 1019.5 in /  34520.3 hPa East 1.6 mph /  2.6 km/h 9.7 mph /  15.6 km/h 54 % 0.0 in /  0 mm
18:52 22.5 °F /  -5.3 °C 12.7 °F /  -10.7 °C 1019.5 in /  34520.3 hPa ENE 3.2 mph /  5.1 km/h 6.4 mph /  10.3 km/h 54 % 0.0 in /  0 mm
18:57 22.3 °F /  -5.4 °C 12.5 °F /  -10.8 °C 1019.5 in /  34520.3 hPa East 1.6 mph /  2.6 km/h 6.4 mph /  10.3 km/h 54 % 0.0 in /  0 mm
19:02 22.2 °F /  -5.4 °C 12.7 °F /  -10.7 °C 1019.5 in /  34520.3 hPa East 1.6 mph /  2.6 km/h 6.4 mph /  10.3 km/h 55 % 0.0 in /  0 mm
19:07 22.1 °F /  -5.5 °C 12.6 °F /  -10.8 °C 1019.5 in /  34520.3 hPa ENE 1.6 mph /  2.6 km/h 4.8 mph /  7.7 km/h 55 % 0.0 in /  0 mm
19:12 22.1 °F /  -5.5 °C 12.9 °F /  -10.6 °C 1019.5 in /  34520.3 hPa Calm   4.8 mph /  7.7 km/h 56 % 0.0 in /  0 mm
19:17 21.9 °F /  -5.6 °C 13.0 °F /  -10.6 °C 1019.5 in /  34520.3 hPa Calm   3.2 mph /  5.1 km/h 57 % 0.0 in /  0 mm
19:22 21.7 °F /  -5.7 °C 12.8 °F /  -10.7 °C 1019.5 in /  34520.3 hPa Calm   3.2 mph /  5.1 km/h 57 % 0.0 in /  0 mm
19:32 21.4 °F /  -5.9 °C 13.6 °F /  -10.2 °C 1019.5 in /  34520.3 hPa ENE 1.6 mph /  2.6 km/h 3.2 mph /  5.1 km/h 61 % 0.0 in /  0 mm
19:37 21.2 °F /  -6 °C 13.4 °F /  -10.3 °C 1019.5 in /  34520.3 hPa Calm   3.2 mph /  5.1 km/h 61 % 0.0 in /  0 mm
19:42 21.1 °F /  -6.1 °C 13.3 °F /  -10.4 °C 1019.5 in /  34520.3 hPa NE 3.2 mph /  5.1 km/h 3.2 mph /  5.1 km/h 61 % 0 in /  0 mm
19:52 21.0 °F /  -6.1 °C 13.2 °F /  -10.4 °C 1019.5 in /  34520.3 hPa NE 1.6 mph /  2.6 km/h 3.2 mph /  5.1 km/h 61 % 0.0 in /  0 mm
19:57 20.9 °F /  -6.2 °C 13.1 °F /  -10.5 °C 1019.5 in /  34520.3 hPa NE 1.6 mph /  2.6 km/h 3.2 mph /  5.1 km/h 61 % 0.0 in /  0 mm
20:02 20.8 °F /  -6.2 °C 13.3 °F /  -10.4 °C 1019.5 in /  34520.3 hPa Calm   3.2 mph /  5.1 km/h 62 % 0.0 in /  0 mm
20:12 20.3 °F /  -6.5 °C 13.5 °F /  -10.3 °C 1019.5 in /  34520.3 hPa Calm   3.2 mph /  5.1 km/h 65 % 0.0 in /  0 mm
20:17 19.9 °F /  -6.7 °C 13.4 °F /  -10.3 °C 1019.5 in /  34520.3 hPa Calm   1.6 mph /  2.6 km/h 66 % 0.0 in /  0 mm
20:22 19.7 °F /  -6.8 °C 13.4 °F /  -10.3 °C 1019.5 in /  34520.3 hPa Calm   1.6 mph /  2.6 km/h 67 % 0.0 in /  0 mm
20:32 19.6 °F /  -6.9 °C 13.5 °F /  -10.3 °C 1019.5 in /  34520.3 hPa Calm     68 % 0.0 in /  0 mm
20:37 19.5 °F /  -6.9 °C 13.4 °F /  -10.3 °C 1019.5 in /  34520.3 hPa Calm     68 % 0.0 in /  0 mm
20:42 19.3 °F /  -7.1 °C 13.2 °F /  -10.4 °C 1019.5 in /  34520.3 hPa Calm     68 % 0.0 in /  0 mm
20:52 19.3 °F /  -7.1 °C 13.7 °F /  -10.2 °C 1019.9 in /  34533.8 hPa Calm     70 % 0.0 in /  0 mm
20:57 19.3 °F /  -7.1 °C 13.7 °F /  -10.2 °C 1019.9 in /  34533.8 hPa NNW 1.6 mph /  2.6 km/h 1.6 mph /  2.6 km/h 70 % 0.0 in /  0 mm
21:02 19.2 °F /  -7.1 °C 13.6 °F /  -10.2 °C 1019.9 in /  34533.8 hPa Calm   1.6 mph /  2.6 km/h 70 % 0.0 in /  0 mm
21:12 19.1 °F /  -7.2 °C 13.7 °F /  -10.2 °C 1019.9 in /  34533.8 hPa Calm   1.6 mph /  2.6 km/h 71 % 0.0 in /  0 mm
21:17 19.0 °F /  -7.2 °C 14.0 °F /  -10 °C 1019.9 in /  34533.8 hPa Calm   1.6 mph /  2.6 km/h 73 % 0.0 in /  0 mm
21:22 18.8 °F /  -7.3 °C 13.9 °F /  -10.1 °C 1019.5 in /  34520.3 hPa Calm   1.6 mph /  2.6 km/h 73 % 0.0 in /  0 mm
21:32 18.6 °F /  -7.4 °C 13.7 °F /  -10.2 °C 1019.5 in /  34520.3 hPa Calm     73 % 0.0 in /  0 mm
21:37 18.4 °F /  -7.6 °C 13.5 °F /  -10.3 °C 1019.9 in /  34533.8 hPa Calm     73 % 0.0 in /  0 mm
21:42 18.3 °F /  -7.6 °C 13.6 °F /  -10.2 °C 1019.5 in /  34520.3 hPa Calm     74 % 0.0 in /  0 mm
21:52 18.1 °F /  -7.7 °C 13.6 °F /  -10.2 °C 1019.5 in /  34520.3 hPa Calm     75 % 0.0 in /  0 mm
21:57 17.8 °F /  -7.9 °C 13.3 °F /  -10.4 °C 1019.5 in /  34520.3 hPa Calm   1.6 mph /  2.6 km/h 75 % 0.0 in /  0 mm
22:02 17.8 °F /  -7.9 °C 13.3 °F /  -10.4 °C 1019.5 in /  34520.3 hPa Calm   1.6 mph /  2.6 km/h 75 % 0.0 in /  0 mm
22:07 17.8 °F /  -7.9 °C 13.1 °F /  -10.5 °C 1019.5 in /  34520.3 hPa Calm   1.6 mph /  2.6 km/h 74 % 0.0 in /  0 mm
22:12 17.8 °F /  -7.9 °C 13.1 °F /  -10.5 °C 1019.9 in /  34533.8 hPa Calm   1.6 mph /  2.6 km/h 74 % 0.0 in /  0 mm
22:17 17.6 °F /  -8 °C 13.3 °F /  -10.4 °C 1019.9 in /  34533.8 hPa Calm   1.6 mph /  2.6 km/h 76 % 0.0 in /  0 mm
22:22 17.7 °F /  -7.9 °C 13.2 °F /  -10.4 °C 1019.9 in /  34533.8 hPa Calm   1.6 mph /  2.6 km/h 75 % 0.0 in /  0 mm
22:27 17.8 °F /  -7.9 °C 13.3 °F /  -10.4 °C 1019.9 in /  34533.8 hPa Calm   1.6 mph /  2.6 km/h 75 % 0.0 in /  0 mm
22:32 17.8 °F /  -7.9 °C 13.3 °F /  -10.4 °C 1019.9 in /  34533.8 hPa Calm   1.6 mph /  2.6 km/h 75 % 0.0 in /  0 mm
22:37 17.7 °F /  -7.9 °C 13.2 °F /  -10.4 °C 1019.9 in /  34533.8 hPa Calm     75 % 0.0 in /  0 mm
22:42 17.6 °F /  -8 °C 13.1 °F /  -10.5 °C 1019.9 in /  34533.8 hPa Calm     75 % 0.0 in /  0 mm
22:47 17.6 °F /  -8 °C 13.1 °F /  -10.5 °C 1019.5 in /  34520.3 hPa Calm     75 % 0.0 in /  0 mm
22:52 17.6 °F /  -8 °C 13.1 °F /  -10.5 °C 1019.5 in /  34520.3 hPa Calm     75 % 0.0 in /  0 mm
23:02 17.5 °F /  -8.1 °C 13.0 °F /  -10.6 °C 1019.5 in /  34520.3 hPa Calm     75 % 0.0 in /  0 mm
23:12 17.2 °F /  -8.2 °C 13.1 °F /  -10.5 °C 1019.9 in /  34533.8 hPa WNW 1.6 mph /  2.6 km/h   77 % 0.0 in /  0 mm
23:17 16.8 °F /  -8.4 °C 12.9 °F /  -10.6 °C 1019.5 in /  34520.3 hPa Calm   1.6 mph /  2.6 km/h 78 % 0.0 in /  0 mm
23:22 16.8 °F /  -8.4 °C 12.7 °F /  -10.7 °C 1019.5 in /  34520.3 hPa Calm   1.6 mph /  2.6 km/h 77 % 0.0 in /  0 mm
23:32 17.3 °F /  -8.2 °C 12.6 °F /  -10.8 °C 1019.5 in /  34520.3 hPa Calm   1.6 mph /  2.6 km/h 74 % 0.0 in /  0 mm
23:37 17.4 °F /  -8.1 °C 12.7 °F /  -10.7 °C 1019.5 in /  34520.3 hPa Calm   1.6 mph /  2.6 km/h 74 % 0.0 in /  0 mm
23:47 16.5 °F /  -8.6 °C 12.7 °F /  -10.7 °C 1019.5 in /  34520.3 hPa Calm   1.6 mph /  2.6 km/h 78 % 0.0 in /  0 mm
23:52 16.2 °F /  -8.8 °C 12.6 °F /  -10.8 °C 1019.5 in /  34520.3 hPa Calm   1.6 mph /  2.6 km/h 79 % 0.0 in /  0 mm
23:57 16.2 °F /  -8.8 °C 12.4 °F /  -10.9 °C 1019.5 in /  34520.3 hPa Calm   1.6 mph /  2.6 km/h 78 % 0.0 in /  0 mm
Meteo18
Compliments of Weather Underground - 4 mb

Script developed by  Jim McMurry - jmcmurry@mwt.net Adapted for the template by  Wim van der Kuil - Leuven-Template.eu

You find our weather info also at:

European Weather Network

Weather Underground

Equipment we use:

Weather-station
Davis Vue

Weather-program
Meteobridge

Weather-server
Raspberry PI 2 B+

Provider
1 and 1

Davis Vue

Meteobridge

Raspberry PI 2 B+

1 and 1